sensor_id;sensor_type;location;lat;lon;timestamp;pressure;altitude;pressure_sealevel;temperature;humidity
49759;BME280;70329;45.524;10.194;2023-06-22T00:01:10;100458.88;;;25.79;52.80
49759;BME280;70329;45.524;10.194;2023-06-22T00:03:35;100448.38;;;25.76;53.08
49759;BME280;70329;45.524;10.194;2023-06-22T00:06:01;100448.59;;;25.67;53.73
49759;BME280;70329;45.524;10.194;2023-06-22T00:08:26;100454.81;;;25.57;54.01
49759;BME280;70329;45.524;10.194;2023-06-22T00:10:51;100446.22;;;25.69;53.45
49759;BME280;70329;45.524;10.194;2023-06-22T00:13:16;100446.97;;;25.66;53.60
49759;BME280;70329;45.524;10.194;2023-06-22T00:15:43;100448.72;;;25.74;53.19
49759;BME280;70329;45.524;10.194;2023-06-22T00:18:09;100442.34;;;25.74;53.15
49759;BME280;70329;45.524;10.194;2023-06-22T00:20:34;100450.44;;;25.79;52.82
49759;BME280;70329;45.524;10.194;2023-06-22T00:23:02;100452.06;;;25.80;52.72
49759;BME280;70329;45.524;10.194;2023-06-22T00:25:31;100449.19;;;25.76;53.02
49759;BME280;70329;45.524;10.194;2023-06-22T00:27:56;100449.63;;;25.78;53.09
49759;BME280;70329;45.524;10.194;2023-06-22T00:30:22;100450.81;;;25.77;53.07
49759;BME280;70329;45.524;10.194;2023-06-22T00:32:47;100448.31;;;25.72;53.52
49759;BME280;70329;45.524;10.194;2023-06-22T00:35:12;100448.19;;;25.65;53.70
49759;BME280;70329;45.524;10.194;2023-06-22T00:37:38;100451.34;;;25.64;53.87
49759;BME280;70329;45.524;10.194;2023-06-22T00:40:05;100441.31;;;25.63;53.74
49759;BME280;70329;45.524;10.194;2023-06-22T00:42:32;100443.00;;;25.67;53.60
49759;BME280;70329;45.524;10.194;2023-06-22T00:44:57;100438.78;;;25.58;53.61
49759;BME280;70329;45.524;10.194;2023-06-22T00:47:23;100438.34;;;25.56;53.60
49759;BME280;70329;45.524;10.194;2023-06-22T00:49:49;100438.72;;;25.54;53.94
49759;BME280;70329;45.524;10.194;2023-06-22T00:52:16;100439.47;;;25.51;54.03
49759;BME280;70329;45.524;10.194;2023-06-22T00:54:45;100436.78;;;25.58;53.97
49759;BME280;70329;45.524;10.194;2023-06-22T00:57:14;100448.31;;;25.53;54.13
49759;BME280;70329;45.524;10.194;2023-06-22T00:59:45;100445.13;;;25.55;54.56
49759;BME280;70329;45.524;10.194;2023-06-22T01:02:12;100441.59;;;25.58;54.38
49759;BME280;70329;45.524;10.194;2023-06-22T01:04:37;100445.34;;;25.46;54.67
49759;BME280;70329;45.524;10.194;2023-06-22T01:09:31;100441.97;;;25.21;55.85
49759;BME280;70329;45.524;10.194;2023-06-22T01:11:59;100445.28;;;25.08;56.31
49759;BME280;70329;45.524;10.194;2023-06-22T01:14:32;100448.69;;;25.17;55.99
49759;BME280;70329;45.524;10.194;2023-06-22T01:17:00;100450.38;;;25.21;55.66
49759;BME280;70329;45.524;10.194;2023-06-22T01:19:37;100441.47;;;25.16;56.05
49759;BME280;70329;45.524;10.194;2023-06-22T01:22:06;100437.63;;;25.24;55.69
49759;BME280;70329;45.524;10.194;2023-06-22T01:27:15;100442.38;;;25.20;55.92
49759;BME280;70329;45.524;10.194;2023-06-22T01:29:46;100445.38;;;25.11;55.94
49759;BME280;70329;45.524;10.194;2023-06-22T01:32:12;100443.41;;;24.96;56.74
49759;BME280;70329;45.524;10.194;2023-06-22T01:34:38;100446.94;;;24.93;56.96
49759;BME280;70329;45.524;10.194;2023-06-22T01:37:05;100444.22;;;24.97;56.42
49759;BME280;70329;45.524;10.194;2023-06-22T01:39:31;100446.47;;;25.07;56.24
49759;BME280;70329;45.524;10.194;2023-06-22T01:41:57;100450.00;;;25.04;56.18
49759;BME280;70329;45.524;10.194;2023-06-22T01:44:22;100446.00;;;25.05;56.24
49759;BME280;70329;45.524;10.194;2023-06-22T01:46:48;100456.88;;;25.06;56.23
49759;BME280;70329;45.524;10.194;2023-06-22T01:49:15;100450.53;;;25.09;55.70
49759;BME280;70329;45.524;10.194;2023-06-22T01:51:40;100457.41;;;24.96;56.23
49759;BME280;70329;45.524;10.194;2023-06-22T01:54:06;100451.66;;;24.89;56.37
49759;BME280;70329;45.524;10.194;2023-06-22T01:56:32;100456.97;;;24.94;56.10
49759;BME280;70329;45.524;10.194;2023-06-22T01:59:02;100448.13;;;24.92;56.36
49759;BME280;70329;45.524;10.194;2023-06-22T02:01:31;100446.50;;;24.91;56.33
49759;BME280;70329;45.524;10.194;2023-06-22T02:04:05;100446.41;;;24.87;56.08
49759;BME280;70329;45.524;10.194;2023-06-22T02:06:37;100437.38;;;24.94;55.97
49759;BME280;70329;45.524;10.194;2023-06-22T02:09:12;100440.25;;;24.98;55.73
49759;BME280;70329;45.524;10.194;2023-06-22T02:11:40;100436.94;;;24.92;55.91
49759;BME280;70329;45.524;10.194;2023-06-22T02:14:06;100433.53;;;25.02;55.27
49759;BME280;70329;45.524;10.194;2023-06-22T02:16:32;100448.28;;;24.99;55.17
49759;BME280;70329;45.524;10.194;2023-06-22T02:18:57;100442.44;;;24.88;55.43
49759;BME280;70329;45.524;10.194;2023-06-22T02:21:28;100446.47;;;25.07;54.68
49759;BME280;70329;45.524;10.194;2023-06-22T02:23:53;100447.66;;;25.06;54.46
49759;BME280;70329;45.524;10.194;2023-06-22T02:26:19;100444.13;;;25.09;54.55
49759;BME280;70329;45.524;10.194;2023-06-22T02:28:44;100446.84;;;25.05;55.00
49759;BME280;70329;45.524;10.194;2023-06-22T02:31:11;100449.47;;;24.98;55.80
49759;BME280;70329;45.524;10.194;2023-06-22T02:33:36;100454.28;;;24.98;56.05
49759;BME280;70329;45.524;10.194;2023-06-22T02:36:01;100455.81;;;24.79;56.99
49759;BME280;70329;45.524;10.194;2023-06-22T02:38:30;100460.34;;;24.84;57.01
49759;BME280;70329;45.524;10.194;2023-06-22T02:40:58;100457.91;;;24.82;57.09
49759;BME280;70329;45.524;10.194;2023-06-22T02:43:23;100462.44;;;24.87;56.99
49759;BME280;70329;45.524;10.194;2023-06-22T02:45:48;100456.53;;;24.76;57.42
49759;BME280;70329;45.524;10.194;2023-06-22T02:48:13;100459.16;;;24.85;56.93
49759;BME280;70329;45.524;10.194;2023-06-22T02:50:39;100452.78;;;24.84;57.06
49759;BME280;70329;45.524;10.194;2023-06-22T02:53:04;100466.56;;;24.77;57.40
49759;BME280;70329;45.524;10.194;2023-06-22T02:55:29;100470.31;;;24.81;57.29
49759;BME280;70329;45.524;10.194;2023-06-22T02:57:55;100461.09;;;24.81;57.10
49759;BME280;70329;45.524;10.194;2023-06-22T03:00:22;100461.09;;;24.81;57.56
49759;BME280;70329;45.524;10.194;2023-06-22T03:02:48;100460.63;;;24.79;57.46
49759;BME280;70329;45.524;10.194;2023-06-22T03:05:13;100467.56;;;24.69;57.89
49759;BME280;70329;45.524;10.194;2023-06-22T03:07:40;100468.19;;;24.63;58.06
49759;BME280;70329;45.524;10.194;2023-06-22T03:10:06;100462.34;;;24.68;57.71
49759;BME280;70329;45.524;10.194;2023-06-22T03:12:31;100467.66;;;24.73;57.76
49759;BME280;70329;45.524;10.194;2023-06-22T03:14:57;100468.00;;;24.71;57.10
49759;BME280;70329;45.524;10.194;2023-06-22T03:17:23;100473.16;;;24.69;57.44
49759;BME280;70329;45.524;10.194;2023-06-22T03:19:48;100470.00;;;24.71;57.35
49759;BME280;70329;45.524;10.194;2023-06-22T03:22:13;100470.28;;;24.66;57.64
49759;BME280;70329;45.524;10.194;2023-06-22T03:24:40;100462.78;;;24.70;57.68
49759;BME280;70329;45.524;10.194;2023-06-22T03:27:05;100470.00;;;24.71;57.56
49759;BME280;70329;45.524;10.194;2023-06-22T03:29:31;100463.84;;;24.65;57.63
49759;BME280;70329;45.524;10.194;2023-06-22T03:31:56;100474.34;;;24.68;57.93
49759;BME280;70329;45.524;10.194;2023-06-22T03:34:21;100462.41;;;24.71;57.75
49759;BME280;70329;45.524;10.194;2023-06-22T03:36:46;100471.72;;;24.75;57.59
49759;BME280;70329;45.524;10.194;2023-06-22T03:39:12;100461.53;;;24.83;57.30
49759;BME280;70329;45.524;10.194;2023-06-22T03:41:37;100467.50;;;24.81;57.46
49759;BME280;70329;45.524;10.194;2023-06-22T03:44:03;100473.25;;;24.88;56.97
49759;BME280;70329;45.524;10.194;2023-06-22T03:46:29;100468.09;;;24.90;56.98
49759;BME280;70329;45.524;10.194;2023-06-22T03:48:54;100471.00;;;24.94;56.98
49759;BME280;70329;45.524;10.194;2023-06-22T03:51:19;100466.22;;;24.95;56.72
49759;BME280;70329;45.524;10.194;2023-06-22T03:53:44;100473.69;;;24.90;57.31
49759;BME280;70329;45.524;10.194;2023-06-22T03:56:10;100467.84;;;24.96;57.25
49759;BME280;70329;45.524;10.194;2023-06-22T03:58:35;100465.91;;;25.00;57.07
49759;BME280;70329;45.524;10.194;2023-06-22T04:01:01;100469.97;;;25.02;57.05
49759;BME280;70329;45.524;10.194;2023-06-22T04:03:27;100478.09;;;25.07;56.13
49759;BME280;70329;45.524;10.194;2023-06-22T04:05:52;100470.97;;;25.10;55.89
49759;BME280;70329;45.524;10.194;2023-06-22T04:08:17;100480.69;;;25.16;56.05
49759;BME280;70329;45.524;10.194;2023-06-22T04:10:42;100471.56;;;25.19;55.53
49759;BME280;70329;45.524;10.194;2023-06-22T04:13:08;100476.00;;;25.20;55.72
49759;BME280;70329;45.524;10.194;2023-06-22T04:15:33;100483.28;;;25.24;55.66
49759;BME280;70329;45.524;10.194;2023-06-22T04:17:59;100482.03;;;25.22;56.14
49759;BME280;70329;45.524;10.194;2023-06-22T04:20:24;100487.22;;;25.20;56.11
49759;BME280;70329;45.524;10.194;2023-06-22T04:22:55;100482.13;;;25.25;56.35
49759;BME280;70329;45.524;10.194;2023-06-22T04:25:21;100474.53;;;25.26;55.63
49759;BME280;70329;45.524;10.194;2023-06-22T04:27:47;100481.31;;;25.25;55.98
49759;BME280;70329;45.524;10.194;2023-06-22T04:30:13;100473.72;;;25.25;55.65
49759;BME280;70329;45.524;10.194;2023-06-22T04:32:41;100467.72;;;25.27;55.98
49759;BME280;70329;45.524;10.194;2023-06-22T04:35:07;100466.13;;;25.26;55.98
49759;BME280;70329;45.524;10.194;2023-06-22T04:37:33;100463.38;;;25.29;56.11
49759;BME280;70329;45.524;10.194;2023-06-22T04:39:58;100468.34;;;25.36;56.12
49759;BME280;70329;45.524;10.194;2023-06-22T04:42:25;100454.84;;;25.41;55.45
49759;BME280;70329;45.524;10.194;2023-06-22T04:44:51;100456.22;;;25.48;55.17
49759;BME280;70329;45.524;10.194;2023-06-22T04:47:16;100458.72;;;25.53;55.04
49759;BME280;70329;45.524;10.194;2023-06-22T04:49:41;100458.72;;;25.53;55.39
49759;BME280;70329;45.524;10.194;2023-06-22T04:52:08;100454.06;;;25.60;54.96
49759;BME280;70329;45.524;10.194;2023-06-22T04:54:34;100457.69;;;25.61;55.23
49759;BME280;70329;45.524;10.194;2023-06-22T04:57:00;100461.38;;;25.65;55.30
49759;BME280;70329;45.524;10.194;2023-06-22T04:59:26;100469.50;;;25.70;55.22
49759;BME280;70329;45.524;10.194;2023-06-22T05:01:53;100459.69;;;25.79;55.00
49759;BME280;70329;45.524;10.194;2023-06-22T05:04:19;100465.56;;;25.93;54.50
49759;BME280;70329;45.524;10.194;2023-06-22T05:06:44;100465.03;;;26.07;53.68
49759;BME280;70329;45.524;10.194;2023-06-22T05:09:10;100454.34;;;26.35;53.20
49759;BME280;70329;45.524;10.194;2023-06-22T05:11:37;100458.09;;;26.69;51.54
49759;BME280;70329;45.524;10.194;2023-06-22T05:14:02;100457.84;;;27.00;50.58
49759;BME280;70329;45.524;10.194;2023-06-22T05:16:27;100445.75;;;27.56;49.10
49759;BME280;70329;45.524;10.194;2023-06-22T05:18:53;100446.53;;;28.63;46.15
49759;BME280;70329;45.524;10.194;2023-06-22T05:21:21;100441.00;;;29.35;43.91
49759;BME280;70329;45.524;10.194;2023-06-22T05:23:46;100435.91;;;29.76;42.67
49759;BME280;70329;45.524;10.194;2023-06-22T05:26:12;100440.81;;;29.86;41.97
49759;BME280;70329;45.524;10.194;2023-06-22T05:28:37;100435.22;;;30.08;41.40
49759;BME280;70329;45.524;10.194;2023-06-22T05:31:02;100447.41;;;30.65;40.22
49759;BME280;70329;45.524;10.194;2023-06-22T05:33:29;100453.06;;;31.03;39.41
49759;BME280;70329;45.524;10.194;2023-06-22T05:35:54;100451.47;;;30.56;40.18
49759;BME280;70329;45.524;10.194;2023-06-22T05:38:19;100448.56;;;30.18;41.15
49759;BME280;70329;45.524;10.194;2023-06-22T05:40:44;100461.13;;;30.84;39.78
49759;BME280;70329;45.524;10.194;2023-06-22T05:43:10;100453.59;;;32.99;36.34
49759;BME280;70329;45.524;10.194;2023-06-22T05:45:35;100446.38;;;34.99;33.33
49759;BME280;70329;45.524;10.194;2023-06-22T05:48:00;100449.34;;;35.94;31.47
49759;BME280;70329;45.524;10.194;2023-06-22T05:50:26;100444.94;;;36.61;30.03
49759;BME280;70329;45.524;10.194;2023-06-22T05:52:51;100453.16;;;36.59;30.08
49759;BME280;70329;45.524;10.194;2023-06-22T05:55:16;100456.06;;;35.68;31.06
49759;BME280;70329;45.524;10.194;2023-06-22T05:57:43;100448.78;;;35.43;31.73
49759;BME280;70329;45.524;10.194;2023-06-22T06:00:09;100449.34;;;36.65;29.98
49759;BME280;70329;45.524;10.194;2023-06-22T06:02:36;100440.72;;;37.71;28.58
49759;BME280;70329;45.524;10.194;2023-06-22T06:05:02;100441.47;;;38.64;27.30
49759;BME280;70329;45.524;10.194;2023-06-22T06:07:27;100443.72;;;39.50;26.16
49759;BME280;70329;45.524;10.194;2023-06-22T06:09:53;100440.00;;;39.84;25.62
49759;BME280;70329;45.524;10.194;2023-06-22T06:12:18;100437.81;;;40.58;24.71
49759;BME280;70329;45.524;10.194;2023-06-22T06:14:43;100431.91;;;40.71;23.95
49759;BME280;70329;45.524;10.194;2023-06-22T06:17:08;100425.84;;;40.51;24.12
49759;BME280;70329;45.524;10.194;2023-06-22T06:19:35;100423.84;;;38.27;26.29
49759;BME280;70329;45.524;10.194;2023-06-22T06:22:01;100425.94;;;35.47;30.01
49759;BME280;70329;45.524;10.194;2023-06-22T06:24:27;100428.53;;;34.48;31.74
49759;BME280;70329;45.524;10.194;2023-06-22T06:26:52;100433.63;;;33.47;33.52
49759;BME280;70329;45.524;10.194;2023-06-22T06:29:18;100434.72;;;31.57;37.03
49759;BME280;70329;45.524;10.194;2023-06-22T06:31:43;100434.69;;;33.26;34.89
49759;BME280;70329;45.524;10.194;2023-06-22T06:34:08;100428.75;;;33.13;34.85
49759;BME280;70329;45.524;10.194;2023-06-22T06:36:34;100437.34;;;33.40;34.07
49759;BME280;70329;45.524;10.194;2023-06-22T06:38:59;100437.69;;;33.79;33.69
49759;BME280;70329;45.524;10.194;2023-06-22T06:41:24;100445.22;;;32.33;36.17
49759;BME280;70329;45.524;10.194;2023-06-22T06:43:49;100445.00;;;34.07;34.17
49759;BME280;70329;45.524;10.194;2023-06-22T06:46:16;100444.88;;;33.54;34.05
49759;BME280;70329;45.524;10.194;2023-06-22T06:48:43;100456.63;;;34.20;33.25
49759;BME280;70329;45.524;10.194;2023-06-22T06:51:08;100451.72;;;34.47;33.94
49759;BME280;70329;45.524;10.194;2023-06-22T06:53:37;100457.47;;;34.70;32.68
49759;BME280;70329;45.524;10.194;2023-06-22T06:56:03;100457.69;;;34.56;32.84
49759;BME280;70329;45.524;10.194;2023-06-22T06:58:30;100467.66;;;34.41;32.88
49759;BME280;70329;45.524;10.194;2023-06-22T07:00:55;100467.94;;;34.23;33.26
49759;BME280;70329;45.524;10.194;2023-06-22T07:03:20;100474.34;;;34.31;34.63
49759;BME280;70329;45.524;10.194;2023-06-22T07:05:45;100465.94;;;34.47;33.58
49759;BME280;70329;45.524;10.194;2023-06-22T07:08:11;100480.31;;;34.06;35.23
49759;BME280;70329;45.524;10.194;2023-06-22T07:10:37;100472.75;;;34.26;35.05
49759;BME280;70329;45.524;10.194;2023-06-22T07:13:04;100468.59;;;33.74;35.82
49759;BME280;70329;45.524;10.194;2023-06-22T07:15:30;100474.47;;;33.56;36.12
49759;BME280;70329;45.524;10.194;2023-06-22T07:17:56;100473.69;;;33.56;36.14
49759;BME280;70329;45.524;10.194;2023-06-22T07:20:23;100477.06;;;33.44;36.99
49759;BME280;70329;45.524;10.194;2023-06-22T07:22:49;100472.06;;;33.17;36.21
49759;BME280;70329;45.524;10.194;2023-06-22T07:25:16;100481.25;;;32.88;36.88
49759;BME280;70329;45.524;10.194;2023-06-22T07:27:56;100484.66;;;32.72;37.31
49759;BME280;70329;45.524;10.194;2023-06-22T07:30:23;100489.06;;;32.76;36.87
49759;BME280;70329;45.524;10.194;2023-06-22T07:32:48;100489.91;;;32.70;37.94
49759;BME280;70329;45.524;10.194;2023-06-22T07:35:15;100492.03;;;32.59;39.10
49759;BME280;70329;45.524;10.194;2023-06-22T07:37:42;100486.69;;;32.71;37.64
49759;BME280;70329;45.524;10.194;2023-06-22T07:40:09;100486.81;;;32.50;38.97
49759;BME280;70329;45.524;10.194;2023-06-22T07:42:35;100491.66;;;32.50;39.68
49759;BME280;70329;45.524;10.194;2023-06-22T07:45:02;100487.88;;;32.74;37.97
49759;BME280;70329;45.524;10.194;2023-06-22T07:47:29;100497.06;;;32.89;39.08
49759;BME280;70329;45.524;10.194;2023-06-22T07:49:57;100494.25;;;32.89;38.98
49759;BME280;70329;45.524;10.194;2023-06-22T07:52:24;100494.75;;;32.73;38.98
49759;BME280;70329;45.524;10.194;2023-06-22T07:54:50;100492.47;;;32.50;39.10
49759;BME280;70329;45.524;10.194;2023-06-22T07:57:17;100482.13;;;32.22;39.32
49759;BME280;70329;45.524;10.194;2023-06-22T07:59:44;100472.75;;;31.60;41.07
49759;BME280;70329;45.524;10.194;2023-06-22T08:02:10;100475.97;;;31.44;41.71
49759;BME280;70329;45.524;10.194;2023-06-22T08:04:36;100473.22;;;31.16;42.60
49759;BME280;70329;45.524;10.194;2023-06-22T08:07:03;100470.06;;;30.93;43.34
49759;BME280;70329;45.524;10.194;2023-06-22T08:09:30;100468.78;;;30.80;42.70
49759;BME280;70329;45.524;10.194;2023-06-22T08:11:57;100457.50;;;30.94;42.39
49759;BME280;70329;45.524;10.194;2023-06-22T08:14:25;100448.97;;;31.19;41.15
49759;BME280;70329;45.524;10.194;2023-06-22T08:16:51;100443.63;;;31.56;40.13
49759;BME280;70329;45.524;10.194;2023-06-22T08:19:18;100446.44;;;31.59;40.57
49759;BME280;70329;45.524;10.194;2023-06-22T08:21:44;100437.59;;;31.47;41.08
49759;BME280;70329;45.524;10.194;2023-06-22T08:24:11;100435.06;;;31.66;40.97
49759;BME280;70329;45.524;10.194;2023-06-22T08:26:38;100434.91;;;31.95;42.29
49759;BME280;70329;45.524;10.194;2023-06-22T08:29:03;100434.50;;;32.03;41.36
49759;BME280;70329;45.524;10.194;2023-06-22T08:31:30;100432.84;;;32.13;42.20
49759;BME280;70329;45.524;10.194;2023-06-22T08:33:56;100437.66;;;32.16;40.24
49759;BME280;70329;45.524;10.194;2023-06-22T08:36:22;100426.75;;;32.11;40.60
49759;BME280;70329;45.524;10.194;2023-06-22T08:38:49;100433.09;;;32.33;39.93
49759;BME280;70329;45.524;10.194;2023-06-22T08:41:17;100434.25;;;31.66;41.71
49759;BME280;70329;45.524;10.194;2023-06-22T08:43:44;100418.69;;;32.06;40.68
49759;BME280;70329;45.524;10.194;2023-06-22T08:46:11;100419.84;;;32.19;41.88
49759;BME280;70329;45.524;10.194;2023-06-22T08:48:38;100414.75;;;32.44;40.94
49759;BME280;70329;45.524;10.194;2023-06-22T08:51:04;100404.97;;;32.56;39.58
49759;BME280;70329;45.524;10.194;2023-06-22T08:53:31;100403.84;;;32.43;38.86
49759;BME280;70329;45.524;10.194;2023-06-22T08:55:57;100390.63;;;32.22;38.76
49759;BME280;70329;45.524;10.194;2023-06-22T08:58:24;100390.63;;;32.22;38.59
49759;BME280;70329;45.524;10.194;2023-06-22T09:00:50;100393.91;;;32.17;38.56
49759;BME280;70329;45.524;10.194;2023-06-22T09:04:46;100385.88;;;31.29;41.86
49759;BME280;70329;45.524;10.194;2023-06-22T09:07:12;100369.06;;;30.44;43.46
49759;BME280;70329;45.524;10.194;2023-06-22T09:09:39;100365.31;;;29.76;45.41
49759;BME280;70329;45.524;10.194;2023-06-22T09:12:06;100363.16;;;29.24;47.07
49759;BME280;70329;45.524;10.194;2023-06-22T09:14:32;100351.66;;;28.85;48.08
49759;BME280;70329;45.524;10.194;2023-06-22T09:16:59;100363.13;;;28.59;49.58
49759;BME280;70329;45.524;10.194;2023-06-22T09:19:24;100370.63;;;28.37;50.57
49759;BME280;70329;45.524;10.194;2023-06-22T09:21:51;100388.22;;;28.23;51.73
49759;BME280;70329;45.524;10.194;2023-06-22T09:24:18;100386.50;;;28.12;52.05
49759;BME280;70329;45.524;10.194;2023-06-22T09:26:45;100382.81;;;28.04;52.74
49759;BME280;70329;45.524;10.194;2023-06-22T09:29:11;100389.94;;;27.98;53.44
49759;BME280;70329;45.524;10.194;2023-06-22T09:31:38;100398.75;;;27.93;54.05
49759;BME280;70329;45.524;10.194;2023-06-22T09:34:05;100393.09;;;27.90;54.70
49759;BME280;70329;45.524;10.194;2023-06-22T09:36:32;100386.69;;;27.93;55.27
49759;BME280;70329;45.524;10.194;2023-06-22T09:38:58;100382.69;;;27.94;55.46
49759;BME280;70329;45.524;10.194;2023-06-22T09:41:25;100382.28;;;27.95;55.33
49759;BME280;70329;45.524;10.194;2023-06-22T09:43:52;100373.81;;;27.92;55.16
49759;BME280;70329;45.524;10.194;2023-06-22T09:46:19;100366.53;;;27.87;54.67
49759;BME280;70329;45.524;10.194;2023-06-22T09:48:48;100365.69;;;27.83;54.33
49759;BME280;70329;45.524;10.194;2023-06-22T09:51:15;100367.66;;;27.79;54.35
49759;BME280;70329;45.524;10.194;2023-06-22T09:53:41;100372.06;;;27.77;54.57
49759;BME280;70329;45.524;10.194;2023-06-22T09:56:09;100381.25;;;27.73;54.91
49759;BME280;70329;45.524;10.194;2023-06-22T09:58:45;100383.66;;;27.71;54.94
49759;BME280;70329;45.524;10.194;2023-06-22T10:01:13;100376.41;;;27.70;55.54
49759;BME280;70329;45.524;10.194;2023-06-22T10:03:44;100378.81;;;27.68;56.20
49759;BME280;70329;45.524;10.194;2023-06-22T10:06:09;100381.63;;;27.68;56.29
49759;BME280;70329;45.524;10.194;2023-06-22T10:08:37;100381.22;;;27.70;57.25
49759;BME280;70329;45.524;10.194;2023-06-22T10:11:03;100376.81;;;27.72;57.90
49759;BME280;70329;45.524;10.194;2023-06-22T10:13:29;100375.63;;;27.73;58.83
49759;BME280;70329;45.524;10.194;2023-06-22T10:15:54;100372.81;;;27.73;59.22
49759;BME280;70329;45.524;10.194;2023-06-22T10:18:21;100372.88;;;27.77;59.18
49759;BME280;70329;45.524;10.194;2023-06-22T10:20:52;100380.09;;;27.78;58.29
49759;BME280;70329;45.524;10.194;2023-06-22T10:23:18;100368.06;;;27.81;57.71
49759;BME280;70329;45.524;10.194;2023-06-22T10:25:45;100366.47;;;27.80;57.75
49759;BME280;70329;45.524;10.194;2023-06-22T10:28:12;100365.66;;;27.80;58.30
49759;BME280;70329;45.524;10.194;2023-06-22T10:30:42;100360.03;;;27.80;57.99
49759;BME280;70329;45.524;10.194;2023-06-22T10:33:09;100357.97;;;27.77;57.39
49759;BME280;70329;45.524;10.194;2023-06-22T10:35:36;100350.72;;;27.75;56.34
49759;BME280;70329;45.524;10.194;2023-06-22T10:38:05;100352.72;;;27.75;55.98
49759;BME280;70329;45.524;10.194;2023-06-22T10:40:32;100355.53;;;27.75;55.51
49759;BME280;70329;45.524;10.194;2023-06-22T10:42:59;100351.13;;;27.74;55.17
49759;BME280;70329;45.524;10.194;2023-06-22T10:45:26;100356.69;;;27.70;54.93
49759;BME280;70329;45.524;10.194;2023-06-22T10:47:53;100351.47;;;27.69;54.35
49759;BME280;70329;45.524;10.194;2023-06-22T10:50:22;100341.81;;;27.66;54.50
49759;BME280;70329;45.524;10.194;2023-06-22T10:52:49;100333.72;;;27.65;54.24
49759;BME280;70329;45.524;10.194;2023-06-22T10:55:17;100332.56;;;27.66;54.49
49759;BME280;70329;45.524;10.194;2023-06-22T10:57:43;100327.72;;;27.66;54.51
49759;BME280;70329;45.524;10.194;2023-06-22T11:00:13;100327.38;;;27.71;54.30
49759;BME280;70329;45.524;10.194;2023-06-22T11:02:41;100312.91;;;27.73;55.39
49759;BME280;70329;45.524;10.194;2023-06-22T11:05:09;100310.88;;;27.70;56.38
49759;BME280;70329;45.524;10.194;2023-06-22T11:07:37;100307.69;;;27.71;56.88
49759;BME280;70329;45.524;10.194;2023-06-22T11:10:04;100297.25;;;27.72;56.26
49759;BME280;70329;45.524;10.194;2023-06-22T11:12:31;100304.06;;;27.71;55.63
49759;BME280;70329;45.524;10.194;2023-06-22T11:14:57;100297.59;;;27.70;55.01
49759;BME280;70329;45.524;10.194;2023-06-22T11:17:24;100289.56;;;27.69;54.48
49759;BME280;70329;45.524;10.194;2023-06-22T11:19:51;100286.75;;;27.69;54.06
49759;BME280;70329;45.524;10.194;2023-06-22T11:22:18;100287.97;;;27.71;53.73
49759;BME280;70329;45.524;10.194;2023-06-22T11:24:44;100273.09;;;27.71;53.21
49759;BME280;70329;45.524;10.194;2023-06-22T11:27:11;100273.91;;;27.71;52.77
49759;BME280;70329;45.524;10.194;2023-06-22T11:29:37;100273.09;;;27.71;52.18
49759;BME280;70329;45.524;10.194;2023-06-22T11:32:06;100269.47;;;27.70;51.85
49759;BME280;70329;45.524;10.194;2023-06-22T11:34:34;100259.41;;;27.69;51.82
49759;BME280;70329;45.524;10.194;2023-06-22T11:37:01;100258.22;;;27.70;51.37
49759;BME280;70329;45.524;10.194;2023-06-22T11:39:27;100254.56;;;27.66;51.35
49759;BME280;70329;45.524;10.194;2023-06-22T11:41:54;100249.34;;;27.68;51.90
49759;BME280;70329;45.524;10.194;2023-06-22T11:44:20;100244.97;;;27.71;51.39
49759;BME280;70329;45.524;10.194;2023-06-22T11:46:47;100240.16;;;27.71;51.53
49759;BME280;70329;45.524;10.194;2023-06-22T11:49:14;100230.06;;;27.70;51.16
49759;BME280;70329;45.524;10.194;2023-06-22T11:51:41;100234.50;;;27.71;50.67
49759;BME280;70329;45.524;10.194;2023-06-22T11:54:07;100232.06;;;27.70;50.54
49759;BME280;70329;45.524;10.194;2023-06-22T11:56:34;100229.25;;;27.70;50.12
49759;BME280;70329;45.524;10.194;2023-06-22T11:59:01;100232.88;;;27.70;49.68
49759;BME280;70329;45.524;10.194;2023-06-22T12:01:27;100222.81;;;27.69;49.52
49759;BME280;70329;45.524;10.194;2023-06-22T12:03:58;100221.59;;;27.67;49.04
49759;BME280;70329;45.524;10.194;2023-06-22T12:06:25;100220.81;;;27.66;49.17
49759;BME280;70329;45.524;10.194;2023-06-22T12:08:52;100215.97;;;27.63;49.11
49759;BME280;70329;45.524;10.194;2023-06-22T12:11:19;100213.53;;;27.62;48.85
49759;BME280;70329;45.524;10.194;2023-06-22T12:13:45;100207.47;;;27.60;48.80
49759;BME280;70329;45.524;10.194;2023-06-22T12:16:12;100213.47;;;27.58;48.70
49759;BME280;70329;45.524;10.194;2023-06-22T12:18:39;100204.25;;;27.58;48.26
49759;BME280;70329;45.524;10.194;2023-06-22T12:21:05;100205.44;;;27.57;48.09
49759;BME280;70329;45.524;10.194;2023-06-22T12:23:32;100207.84;;;27.55;47.32
49759;BME280;70329;45.524;10.194;2023-06-22T12:25:59;100206.22;;;27.54;46.57
49759;BME280;70329;45.524;10.194;2023-06-22T12:28:27;100207.41;;;27.49;45.69
49759;BME280;70329;45.524;10.194;2023-06-22T12:30:52;100206.16;;;27.47;45.34
49759;BME280;70329;45.524;10.194;2023-06-22T12:33:19;100210.16;;;27.46;44.71
49759;BME280;70329;45.524;10.194;2023-06-22T12:35:45;100206.50;;;27.42;44.19
49759;BME280;70329;45.524;10.194;2023-06-22T12:38:12;100206.47;;;27.38;43.82
49759;BME280;70329;45.524;10.194;2023-06-22T12:40:39;100212.44;;;27.37;43.72
49759;BME280;70329;45.524;10.194;2023-06-22T12:43:05;100210.03;;;27.35;43.27